Time;durP1;ratioP1;P1;durP2;ratioP2;P2;SDS_P1;SDS_P2;PMS_P1;PMS_P2;Temp;Humidity;BMP_temperature;BMP_pressure;BME280_temperature;BME280_humidity;BME280_pressure;Samples;Min_cycle;Max_cycle;Signal;HPM_P1;HPM_P2
2022/03/25 00:00:12;;;;;;;39.78;19.52;;;;;;;8.45;62.05;102910.94;5086683;28;20048;-57
2022/03/25 00:02:42;;;;;;;38.67;18.02;;;;;;;8.41;62.62;102916.22;5084044;28;20148;-62
2022/03/25 00:05:12;;;;;;;37.60;18.45;;;;;;;8.40;62.35;102911.91;5076308;28;20485;-62
2022/03/25 00:07:41;;;;;;;38.30;19.40;;;;;;;8.40;62.48;102911.91;5073623;28;20045;-61
2022/03/25 00:10:10;;;;;;;42.13;19.52;;;;;;;8.43;62.24;102911.81;5073272;28;20053;-61
2022/03/25 00:12:39;;;;;;;36.80;18.95;;;;;;;8.43;62.59;102920.53;5074317;28;20071;-57
2022/03/25 00:15:08;;;;;;;38.42;19.92;;;;;;;8.39;62.69;102918.03;5095047;28;20048;-57
2022/03/25 00:17:36;;;;;;;37.83;19.17;;;;;;;8.41;62.59;102916.22;5084938;28;20048;-57
2022/03/25 00:20:06;;;;;;;41.28;19.65;;;;;;;8.34;62.98;102920.75;5075730;28;20127;-62
2022/03/25 00:22:36;;;;;;;35.08;18.55;;;;;;;8.27;63.44;102930.50;5075889;28;20045;-58
2022/03/25 00:25:08;;;;;;;40.78;20.15;;;;;;;8.20;62.69;102928.06;5090107;28;20520;-61
2022/03/25 00:27:36;;;;;;;37.15;17.80;;;;;;;8.17;63.19;102921.13;5094496;28;20055;-57
2022/03/25 00:30:05;;;;;;;39.15;19.33;;;;;;;8.14;63.13;102929.06;5088417;28;20047;-57
2022/03/25 00:32:33;;;;;;;36.65;18.02;;;;;;;8.05;62.99;102934.50;5092709;28;20044;-57
2022/03/25 00:35:01;;;;;;;37.88;18.65;;;;;;;8.07;63.10;102930.97;5094506;28;20052;-56
2022/03/25 00:37:30;;;;;;;37.03;18.67;;;;;;;8.02;62.48;102932.81;5093268;28;20071;-57
2022/03/25 00:39:59;;;;;;;38.80;19.15;;;;;;;8.00;62.88;102925.88;5080724;28;20132;-57
2022/03/25 00:42:27;;;;;;;38.10;18.63;;;;;;;8.01;63.20;102928.47;5074696;28;20040;-59
2022/03/25 00:44:56;;;;;;;36.92;19.05;;;;;;;7.85;64.62;102925.28;5089189;28;20048;-56
2022/03/25 00:47:24;;;;;;;42.28;21.25;;;;;;;7.69;65.00;102927.38;5094186;28;20445;-64
2022/03/25 00:49:52;;;;;;;44.45;21.42;;;;;;;7.61;64.96;102927.50;5092939;28;20040;-62
2022/03/25 00:52:20;;;;;;;43.88;22.05;;;;;;;7.45;65.60;102919.06;5090307;28;20411;-56
2022/03/25 00:54:50;;;;;;;45.53;22.80;;;;;;;7.39;65.67;102929.69;5086417;28;20067;-61
2022/03/25 00:57:21;;;;;;;49.30;24.65;;;;;;;7.35;66.89;102925.41;5093409;28;20048;-57
2022/03/25 00:59:52;;;;;;;47.55;23.45;;;;;;;7.32;67.16;102927.19;5074994;28;20048;-61
2022/03/25 01:02:20;;;;;;;47.97;24.75;;;;;;;7.33;67.28;102924.53;5090868;28;20097;-62
2022/03/25 01:04:49;;;;;;;47.83;22.60;;;;;;;7.24;67.66;102917.75;5081734;28;20048;-62
2022/03/25 01:07:17;;;;;;;45.25;25.13;;;;;;;7.24;68.43;102927.31;5074190;28;20130;-62
2022/03/25 01:09:46;;;;;;;51.28;24.83;;;;;;;7.23;68.42;102926.47;5074219;28;20052;-61
2022/03/25 01:12:14;;;;;;;47.00;23.95;;;;;;;7.11;68.85;102926.69;5074669;28;20433;-61
2022/03/25 01:14:46;;;;;;;46.40;24.17;;;;;;;7.09;68.35;102933.72;5088678;28;20047;-61
2022/03/25 01:17:16;;;;;;;45.92;24.33;;;;;;;7.02;68.73;102932.97;5070339;28;20056;-61
2022/03/25 01:19:46;;;;;;;51.00;25.65;;;;;;;6.95;68.97;102931.31;5073357;28;20371;-62
2022/03/25 01:22:15;;;;;;;49.50;25.35;;;;;;;6.89;70.39;102932.28;5089660;28;20478;-61
2022/03/25 01:24:43;;;;;;;50.05;25.40;;;;;;;6.90;70.70;102934.00;5082506;28;20080;-62
2022/03/25 01:27:13;;;;;;;52.35;26.55;;;;;;;6.84;71.20;102923.63;5073851;28;20075;-61
2022/03/25 01:29:42;;;;;;;52.13;26.30;;;;;;;6.81;71.22;102931.53;5086721;28;20045;-62
2022/03/25 01:32:12;;;;;;;49.65;26.30;;;;;;;6.81;71.10;102936.78;5089179;28;20052;-62
2022/03/25 01:34:40;;;;;;;54.17;27.05;;;;;;;6.82;71.07;102938.50;5091205;28;20537;-62
2022/03/25 01:37:09;;;;;;;49.85;26.15;;;;;;;6.87;70.93;102930.56;5086662;28;20044;-62
2022/03/25 01:39:39;;;;;;;48.55;24.55;;;;;;;6.87;71.81;102921.00;5077591;28;20510;-62
2022/03/25 01:42:10;;;;;;;53.43;27.10;;;;;;;6.70;72.21;102923.00;5085799;28;20487;-62
2022/03/25 01:44:40;;;;;;;52.70;27.50;;;;;;;6.75;72.14;102919.44;5074251;28;20148;-61
2022/03/25 01:47:09;;;;;;;49.33;26.50;;;;;;;6.75;71.95;102911.59;5079243;28;20074;-61
2022/03/25 01:49:38;;;;;;;53.22;26.38;;;;;;;6.69;72.34;102913.44;5090215;28;20511;-62
2022/03/25 01:52:07;;;;;;;49.70;25.52;;;;;;;6.78;71.46;102915.91;5073205;28;20456;-60
2022/03/25 01:54:35;;;;;;;50.92;26.10;;;;;;;6.79;71.33;102914.13;5074993;28;20056;-62
2022/03/25 01:57:06;;;;;;;54.97;26.90;;;;;;;6.77;71.06;102915.03;5091084;28;20040;-62
2022/03/25 01:59:35;;;;;;;51.78;26.73;;;;;;;6.77;71.99;102911.56;5077204;28;20112;-62
2022/03/25 02:02:06;;;;;;;48.55;25.73;;;;;;;6.74;72.03;102909.00;5072250;28;20049;-61
2022/03/25 02:04:35;;;;;;;55.45;27.70;;;;;;;6.73;71.85;102913.34;5073985;28;20056;-62
2022/03/25 02:07:05;;;;;;;48.70;26.33;;;;;;;6.83;71.97;102913.19;5091099;28;20153;-62
2022/03/25 02:09:33;;;;;;;48.78;25.70;;;;;;;6.82;72.58;102911.50;5075872;28;20123;-61
2022/03/25 02:12:01;;;;;;;57.78;27.20;;;;;;;6.76;72.33;102920.28;5066361;28;20051;-61
2022/03/25 02:14:30;;;;;;;46.08;25.95;;;;;;;6.67;72.93;102918.69;5072748;28;20046;-61
2022/03/25 02:16:59;;;;;;;48.72;25.42;;;;;;;6.74;72.83;102914.22;5090221;28;20398;-62
2022/03/25 02:19:28;;;;;;;52.70;26.42;;;;;;;6.67;72.28;102913.47;5093027;28;20054;-62
2022/03/25 02:21:57;;;;;;;48.30;26.30;;;;;;;6.55;73.04;102914.50;5090470;28;20123;-62
2022/03/25 02:24:25;;;;;;;50.00;25.83;;;;;;;6.50;73.19;102913.69;5090007;28;20064;-62
2022/03/25 02:26:53;;;;;;;52.95;26.45;;;;;;;6.52;72.36;102909.31;5073883;28;20044;-62
2022/03/25 02:29:23;;;;;;;50.22;25.23;;;;;;;6.50;73.02;102905.84;5072104;28;20048;-62
2022/03/25 02:31:51;;;;;;;50.90;25.85;;;;;;;6.51;73.77;102915.44;5072236;28;20041;-62
2022/03/25 02:34:20;;;;;;;46.90;25.60;;;;;;;6.51;75.18;102915.44;5072375;28;20044;-62
2022/03/25 02:36:48;;;;;;;53.15;27.45;;;;;;;6.49;75.27;102919.84;5086310;28;20043;-62
2022/03/25 02:39:18;;;;;;;51.63;26.33;;;;;;;6.49;75.06;102918.97;5091212;28;20048;-62
2022/03/25 02:41:48;;;;;;;48.45;26.92;;;;;;;6.42;74.76;102913.84;5092320;28;20138;-62
2022/03/25 02:44:16;;;;;;;53.92;26.80;;;;;;;6.35;75.75;102911.31;5092140;28;20048;-57
2022/03/25 02:46:44;;;;;;;54.13;25.92;;;;;;;6.29;76.57;102912.28;5082461;28;20033;-61
2022/03/25 02:49:12;;;;;;;51.83;27.23;;;;;;;6.28;76.67;102922.75;5073326;28;20580;-57
2022/03/25 02:51:41;;;;;;;52.03;27.55;;;;;;;6.20;76.21;102920.25;5077400;28;20089;-57
2022/03/25 02:54:09;;;;;;;53.05;27.70;;;;;;;6.17;76.61;102918.53;5092078;28;20060;-57
2022/03/25 02:56:39;;;;;;;51.25;27.05;;;;;;;6.12;76.73;102920.34;5088245;28;20147;-61
2022/03/25 02:59:07;;;;;;;51.70;27.20;;;;;;;6.03;76.75;102910.88;5075660;28;20036;-61
2022/03/25 03:01:36;;;;;;;45.47;25.67;;;;;;;5.99;77.81;102913.56;5080290;28;20068;-57
2022/03/25 03:04:05;;;;;;;47.63;25.77;;;;;;;5.93;77.55;102910.09;5071589;28;20049;-56
2022/03/25 03:06:33;;;;;;;47.83;24.95;;;;;;;5.82;78.37;102911.13;5075201;28;20429;-62
2022/03/25 03:09:01;;;;;;;47.40;26.83;;;;;;;5.81;78.29;102906.78;5089951;28;20052;-56
2022/03/25 03:11:29;;;;;;;51.15;25.75;;;;;;;5.75;78.25;102912.94;5075388;28;20135;-56
2022/03/25 03:13:59;;;;;;;55.05;27.30;;;;;;;5.74;78.70;102912.09;5091325;28;20069;-61
2022/03/25 03:16:27;;;;;;;53.17;29.10;;;;;;;5.75;78.59;102910.31;5089409;28;20329;-56
2022/03/25 03:18:55;;;;;;;53.65;28.48;;;;;;;5.77;78.66;102916.41;5072513;28;20056;-55
2022/03/25 03:21:24;;;;;;;55.85;27.70;;;;;;;5.70;79.55;102917.34;5082107;28;20044;-56
2022/03/25 03:23:53;;;;;;;58.20;30.05;;;;;;;5.73;79.25;102912.09;5073266;28;20048;-61
2022/03/25 03:26:22;;;;;;;52.38;27.20;;;;;;;5.68;79.66;102914.75;5073124;28;20518;-61
2022/03/25 03:28:50;;;;;;;62.75;30.73;;;;;;;5.75;79.66;102915.53;5084307;28;20048;-61
2022/03/25 03:31:20;;;;;;;51.33;29.08;;;;;;;5.70;80.11;102918.22;5090245;28;20055;-62
2022/03/25 03:33:48;;;;;;;55.33;28.00;;;;;;;5.71;79.63;102911.25;5071465;28;20048;-57
2022/03/25 03:36:16;;;;;;;58.25;28.60;;;;;;;5.63;79.63;102915.69;5071882;28;20102;-62
2022/03/25 03:38:44;;;;;;;55.97;30.15;;;;;;;5.57;81.33;102917.47;5074883;28;20106;-57
2022/03/25 03:41:12;;;;;;;62.20;31.73;;;;;;;5.51;81.81;102911.50;5089801;28;20057;-56
2022/03/25 03:43:41;;;;;;;61.65;31.55;;;;;;;5.39;83.20;102910.72;5076156;28;20052;-61
2022/03/25 03:46:10;;;;;;;56.40;31.35;;;;;;;5.42;82.65;102915.03;5076372;28;20101;-61
2022/03/25 03:48:40;;;;;;;59.95;30.55;;;;;;;5.42;82.49;102917.66;5078728;28;20064;-56
2022/03/25 03:51:08;;;;;;;62.33;32.20;;;;;;;5.43;82.13;102922.00;5075174;28;20048;-56
2022/03/25 03:53:36;;;;;;;58.55;31.42;;;;;;;5.45;82.24;102916.75;5055259;28;20048;-56
2022/03/25 03:56:06;;;;;;;59.40;30.95;;;;;;;5.43;82.94;102919.38;5065802;28;20056;-61
2022/03/25 03:58:34;;;;;;;63.33;32.95;;;;;;;5.25;84.84;102918.69;5063853;28;20530;-61
2022/03/25 04:01:03;;;;;;;65.20;34.97;;;;;;;5.17;86.26;102911.81;5072062;28;20040;-62
2022/03/25 04:03:33;;;;;;;66.10;33.58;;;;;;;5.21;85.70;102924.81;5074509;28;20456;-56
2022/03/25 04:06:03;;;;;;;63.30;33.92;;;;;;;5.25;85.53;102928.28;5067236;28;20056;-56
2022/03/25 04:08:31;;;;;;;60.70;33.10;;;;;;;5.31;85.38;102924.75;5066992;28;20052;-55
2022/03/25 04:10:59;;;;;;;62.33;32.50;;;;;;;5.24;85.41;102921.31;5072713;28;20039;-55
2022/03/25 04:13:27;;;;;;;57.53;30.40;;;;;;;5.27;85.47;102925.66;5063816;28;20051;-57
2022/03/25 04:15:55;;;;;;;64.93;33.70;;;;;;;5.25;85.08;102926.50;5054821;28;20052;-56
2022/03/25 04:18:24;;;;;;;61.50;30.75;;;;;;;5.15;85.97;102924.00;5064892;28;20545;-56
2022/03/25 04:20:52;;;;;;;62.85;32.55;;;;;;;5.14;85.55;102922.28;5092376;28;20044;-55
2022/03/25 04:23:21;;;;;;;66.28;32.63;;;;;;;5.05;86.25;102929.28;5076653;28;20059;-56
2022/03/25 04:25:49;;;;;;;57.20;30.15;;;;;;;4.99;86.86;102918.94;5072839;28;20411;-57
2022/03/25 04:28:18;;;;;;;64.63;32.30;;;;;;;4.90;87.36;102921.63;5074584;28;20470;-56
2022/03/25 04:30:47;;;;;;;64.28;32.30;;;;;;;4.93;86.79;102928.56;5086578;28;20136;-56
2022/03/25 04:33:15;;;;;;;65.30;34.22;;;;;;;4.83;87.58;102933.84;5075578;28;20063;-56
2022/03/25 04:35:43;;;;;;;62.80;33.50;;;;;;;4.82;86.85;102926.88;5081225;28;20040;-57
2022/03/25 04:38:11;;;;;;;61.72;31.13;;;;;;;4.84;86.89;102929.47;5092724;28;20048;-56
2022/03/25 04:40:41;;;;;;;62.28;32.30;;;;;;;4.77;87.08;102925.19;5079421;28;20048;-56
2022/03/25 04:43:09;;;;;;;63.55;33.60;;;;;;;4.74;87.66;102933.91;5075558;28;20059;-56
2022/03/25 04:45:37;;;;;;;67.63;34.25;;;;;;;4.71;88.24;102932.16;5089704;28;20055;-56
2022/03/25 04:48:07;;;;;;;68.32;34.30;;;;;;;4.70;88.23;102929.56;5074357;28;20040;-56
2022/03/25 04:50:35;;;;;;;64.65;33.53;;;;;;;4.78;87.98;102930.38;5074494;28;20059;-57
2022/03/25 04:53:03;;;;;;;69.22;35.25;;;;;;;4.71;88.08;102928.72;5074536;28;20064;-56
2022/03/25 04:55:32;;;;;;;70.45;36.22;;;;;;;4.73;87.79;102927.81;5073017;28;20425;-56
2022/03/25 04:58:01;;;;;;;62.95;33.55;;;;;;;4.66;88.32;102933.09;5074605;28;20446;-56
2022/03/25 05:00:31;;;;;;;64.40;34.38;;;;;;;4.68;89.21;102932.19;5092121;28;20527;-56
2022/03/25 05:02:59;;;;;;;74.38;35.20;;;;;;;4.62;89.41;102931.38;5081213;28;20437;-55
2022/03/25 05:05:27;;;;;;;71.32;35.33;;;;;;;4.59;90.43;102934.88;5086908;28;20073;-56
2022/03/25 05:07:56;;;;;;;70.38;34.78;;;;;;;4.53;92.42;102929.72;5075004;28;20037;-56
2022/03/25 05:10:24;;;;;;;68.00;35.70;;;;;;;4.61;91.88;102929.63;5083158;28;20059;-56
2022/03/25 05:12:52;;;;;;;71.22;37.25;;;;;;;4.54;92.49;102927.09;5089911;28;20505;-57
2022/03/25 05:15:22;;;;;;;69.97;37.15;;;;;;;4.58;91.95;102933.13;5089448;28;20514;-57
2022/03/25 05:17:52;;;;;;;70.63;36.53;;;;;;;4.60;92.79;102930.53;5075071;28;20048;-57
2022/03/25 05:20:23;;;;;;;74.82;38.35;;;;;;;4.51;93.58;102927.13;5073749;28;20037;-57
2022/03/25 05:22:51;;;;;;;74.13;39.22;;;;;;;4.53;93.58;102938.38;5080340;28;20078;-57
2022/03/25 05:25:22;;;;;;;71.75;37.38;;;;;;;4.59;93.45;102944.44;5080057;28;20124;-57
2022/03/25 05:27:52;;;;;;;78.78;38.90;;;;;;;4.52;93.67;102941.84;5071482;28;20722;-56
2022/03/25 05:30:24;;;;;;;76.40;39.33;;;;;;;4.44;95.12;102946.25;5082283;28;20379;-56
2022/03/25 05:32:52;;;;;;;81.57;41.03;;;;;;;4.40;96.34;102944.53;5071413;28;20048;-57
2022/03/25 05:35:20;;;;;;;76.97;38.75;;;;;;;4.39;96.78;102948.00;5073838;28;20044;-61
2022/03/25 05:37:50;;;;;;;85.03;41.15;;;;;;;4.35;97.49;102943.69;5088404;28;20126;-56
2022/03/25 05:40:20;;;;;;;83.57;41.08;;;;;;;4.36;97.80;102948.91;5082919;28;20072;-62
2022/03/25 05:42:48;;;;;;;78.75;39.95;;;;;;;4.39;97.76;102953.22;5083099;28;20068;-56
2022/03/25 05:45:18;;;;;;;79.15;38.65;;;;;;;4.31;99.26;102955.00;5079514;28;20040;-61
2022/03/25 05:47:49;;;;;;;79.55;41.30;;;;;;;4.28;99.60;102955.03;5091439;28;20052;-57
2022/03/25 05:50:18;;;;;;;88.10;41.80;;;;;;;4.30;99.54;102966.31;5078541;28;20040;-60
2022/03/25 05:52:47;;;;;;;78.68;40.63;;;;;;;4.39;99.07;102961.91;5080071;28;20467;-61
2022/03/25 05:55:16;;;;;;;81.18;41.05;;;;;;;4.39;99.08;102968.84;5080771;28;20127;-61
2022/03/25 05:57:46;;;;;;;86.45;41.17;;;;;;;4.37;99.98;102965.41;5074382;28;20130;-61
2022/03/25 06:00:16;;;;;;;86.20;43.05;;;;;;;4.31;100.00;102966.31;5083714;28;20032;-57
2022/03/25 06:02:44;;;;;;;85.43;42.47;;;;;;;4.31;100.00;102973.22;5073761;28;20063;-57
2022/03/25 06:05:15;;;;;;;87.68;41.08;;;;;;;4.33;100.00;102971.50;5078844;28;20044;-61
2022/03/25 06:07:45;;;;;;;83.05;41.40;;;;;;;4.37;100.00;102971.47;5079579;28;20044;-61
2022/03/25 06:10:15;;;;;;;90.03;43.22;;;;;;;4.34;100.00;102966.28;5072568;28;20044;-57
2022/03/25 06:12:43;;;;;;;86.75;41.88;;;;;;;4.36;100.00;102967.16;5077507;28;20036;-57
2022/03/25 06:15:11;;;;;;;82.07;42.08;;;;;;;4.34;100.00;102963.69;5088423;28;20048;-61
2022/03/25 06:17:47;;;;;;;88.93;43.78;;;;;;;4.38;100.00;102970.59;5080705;28;20118;-62
2022/03/25 06:20:19;;;;;;;89.00;44.13;;;;;;;4.39;100.00;102972.34;5078807;28;20028;-62
2022/03/25 06:22:48;;;;;;;84.82;43.35;;;;;;;4.42;100.00;102973.19;5078283;28;20052;-61
2022/03/25 06:25:17;;;;;;;86.00;42.58;;;;;;;4.45;100.00;102968.84;5080105;28;20098;-55
2022/03/25 06:27:47;;;;;;;86.53;44.55;;;;;;;4.50;100.00;102974.88;5078290;28;20044;-56
2022/03/25 06:30:15;;;;;;;84.03;42.60;;;;;;;4.52;100.00;102975.72;5090727;28;20090;-56
2022/03/25 06:32:43;;;;;;;83.10;44.28;;;;;;;4.60;100.00;102978.31;5070480;28;20044;-56
2022/03/25 06:35:12;;;;;;;84.20;43.20;;;;;;;4.63;100.00;102978.28;5073377;28;20256;-59
2022/03/25 06:37:42;;;;;;;93.13;43.25;;;;;;;4.63;100.00;102982.63;5073307;28;20044;-60
2022/03/25 06:40:15;;;;;;;85.57;43.83;;;;;;;4.77;100.00;102974.72;5072613;28;20514;-60
2022/03/25 06:42:44;;;;;;;85.22;42.97;;;;;;;4.84;100.00;102977.28;5072411;28;20113;-60
2022/03/25 06:45:14;;;;;;;86.72;43.95;;;;;;;4.94;100.00;102982.44;5071841;28;20049;-60
2022/03/25 06:47:43;;;;;;;93.38;44.55;;;;;;;4.96;100.00;102985.88;5072118;28;20048;-61
2022/03/25 06:50:15;;;;;;;;;;;;;;;5.01;100.00;102989.34;5072963;28;20114;-56
2022/03/25 06:52:46;;;;;;;88.88;42.95;;;;;;;5.11;100.00;102997.94;5072044;28;19920;-61
2022/03/25 06:55:16;;;;;;;88.03;42.50;;;;;;;5.18;100.00;103000.50;5071818;28;20143;-61
2022/03/25 06:57:48;;;;;;;83.97;41.70;;;;;;;5.27;100.00;103001.31;5071971;28;20071;-56
2022/03/25 07:00:18;;;;;;;81.97;41.30;;;;;;;5.35;100.00;102999.50;5072116;28;20045;-61
2022/03/25 07:02:47;;;;;;;86.47;42.05;;;;;;;5.43;100.00;103000.28;5071784;28;20083;-61
2022/03/25 07:05:16;;;;;;;81.93;43.08;;;;;;;5.48;100.00;103003.72;5072202;28;20053;-61
2022/03/25 07:07:46;;;;;;;81.72;41.75;;;;;;;5.56;100.00;103007.13;5071846;28;20056;-57
2022/03/25 07:10:16;;;;;;;82.45;43.05;;;;;;;5.68;99.83;103007.88;5071862;28;20044;-56
2022/03/25 07:12:46;;;;;;;79.97;42.17;;;;;;;5.77;98.88;103010.41;5071819;28;20052;-57
2022/03/25 07:15:14;;;;;;;82.13;42.67;;;;;;;5.84;97.91;103019.03;5070543;28;20048;-57
2022/03/25 07:17:43;;;;;;;77.43;39.80;;;;;;;5.95;97.90;103016.31;5070995;28;20495;-57
2022/03/25 07:20:14;;;;;;;77.28;38.67;;;;;;;6.12;97.16;103021.38;5071780;28;20060;-56
2022/03/25 07:22:46;;;;;;;77.78;39.72;;;;;;;6.23;95.58;103022.09;5071632;28;20056;-61
2022/03/25 07:25:19;;;;;;;76.68;38.33;;;;;;;6.36;94.58;103015.84;5072003;28;20044;-60
2022/03/25 07:27:48;;;;;;;77.60;40.67;;;;;;;6.52;93.20;103028.72;5071728;28;20407;-56
2022/03/25 07:30:18;;;;;;;72.28;38.35;;;;;;;6.67;91.27;103027.66;5071972;28;20434;-57
2022/03/25 07:32:46;;;;;;;71.78;39.05;;;;;;;6.79;90.65;103032.72;5071520;28;20044;-57
2022/03/25 07:35:16;;;;;;;75.22;38.38;;;;;;;7.00;90.19;103022.81;5071679;28;20098;-57
2022/03/25 07:37:47;;;;;;;70.35;38.80;;;;;;;7.15;88.07;103032.19;5071473;28;20041;-61
2022/03/25 07:40:15;;;;;;;80.28;38.83;;;;;;;7.31;87.07;103032.78;5071664;28;20051;-57
2022/03/25 07:42:46;;;;;;;70.93;37.38;;;;;;;7.48;85.64;103041.22;5071498;28;20506;-62
2022/03/25 07:45:15;;;;;;;71.03;38.35;;;;;;;7.65;84.89;103032.19;5071960;28;20144;-61
2022/03/25 07:47:46;;;;;;;68.20;38.85;;;;;;;7.87;84.71;103040.56;5071409;28;20346;-61
2022/03/25 07:50:16;;;;;;;67.30;37.72;;;;;;;8.18;84.04;103048.69;5071342;28;20045;-61
2022/03/25 07:52:45;;;;;;;65.35;37.55;;;;;;;8.33;81.75;103044.91;5071249;28;20523;-56
2022/03/25 07:55:19;;;;;;;70.93;38.00;;;;;;;8.53;80.11;103048.88;5071408;28;20044;-62
2022/03/25 07:57:50;;;;;;;68.15;37.35;;;;;;;8.80;79.72;103052.66;5071475;28;20048;-57
2022/03/25 08:00:19;;;;;;;67.35;37.03;;;;;;;9.06;78.77;103057.28;5071465;28;20049;-58
2022/03/25 08:02:49;;;;;;;65.90;36.03;;;;;;;9.22;77.26;103060.44;5071456;28;20094;-58
2022/03/25 08:05:17;;;;;;;66.00;37.55;;;;;;;9.44;76.92;103060.75;5071615;28;20127;-58
2022/03/25 08:07:48;;;;;;;64.45;37.47;;;;;;;9.60;75.34;103061.25;5071360;28;20036;-57
2022/03/25 08:10:18;;;;;;;66.20;36.80;;;;;;;9.68;73.21;103058.41;5071334;28;20127;-57
2022/03/25 08:12:49;;;;;;;67.95;40.15;;;;;;;9.92;73.28;103066.53;5071478;28;20426;-62
2022/03/25 08:15:18;;;;;;;69.82;38.08;;;;;;;10.20;72.55;103063.13;5071433;28;20049;-58
2022/03/25 08:17:51;;;;;;;68.30;39.28;;;;;;;10.21;72.90;103068.38;5071405;28;20052;-58
2022/03/25 08:20:24;;;;;;;70.35;38.63;;;;;;;10.37;72.39;103071.44;5071442;28;20049;-62
2022/03/25 08:22:53;;;;;;;65.70;38.58;;;;;;;10.67;72.08;103068.81;5071622;28;20045;-61
2022/03/25 08:28:08;;;;;;;64.82;38.10;;;;;;;10.80;69.48;103074.59;5071419;28;20115;-57
2022/03/25 08:30:37;;;;;;;69.10;38.60;;;;;;;11.11;68.93;103076.25;5074873;28;20051;-61
2022/03/25 08:33:07;;;;;;;63.90;37.97;;;;;;;11.18;67.47;103075.16;5074593;28;20036;-61
2022/03/25 08:35:37;;;;;;;67.25;38.75;;;;;;;11.44;66.71;103078.72;5073494;28;20522;-59
2022/03/25 08:38:07;;;;;;;70.40;40.15;;;;;;;11.38;66.75;103081.53;5074789;28;20101;-61
2022/03/25 08:40:38;;;;;;;71.55;39.97;;;;;;;11.69;66.32;103080.53;5075002;28;20055;-58
2022/03/25 08:43:27;;;;;;;68.28;40.22;;;;;;;11.88;65.13;103078.94;5074766;28;20044;-58
2022/03/25 08:45:56;;;;;;;70.93;40.80;;;;;;;12.10;65.24;103084.34;5074711;28;20460;-60
2022/03/25 08:48:25;;;;;;;67.60;40.78;;;;;;;12.16;64.66;103073.59;5074559;28;20610;-58
2022/03/25 08:50:54;;;;;;;63.72;39.35;;;;;;;12.17;63.66;103072.69;5074528;28;20529;-61
2022/03/25 08:53:22;;;;;;;67.80;41.58;;;;;;;12.39;62.78;103086.84;5074388;28;20502;-58
2022/03/25 08:55:50;;;;;;;64.22;39.92;;;;;;;12.42;62.04;103081.44;5074272;28;20131;-57
2022/03/25 08:58:19;;;;;;;62.60;40.10;;;;;;;12.65;61.29;103086.72;5074252;28;20047;-58
2022/03/25 09:00:49;;;;;;;64.65;40.10;;;;;;;13.08;61.23;103085.97;5074098;28;20531;-61
2022/03/25 09:03:18;;;;;;;62.47;37.28;;;;;;;13.23;58.36;103095.06;5074090;28;20226;-57
2022/03/25 09:05:46;;;;;;;59.53;37.00;;;;;;;13.39;56.35;103082.06;5074257;28;20399;-63
2022/03/25 09:08:15;;;;;;;63.05;38.00;;;;;;;13.43;57.33;103081.03;5074182;28;20049;-62
2022/03/25 09:10:44;;;;;;;66.75;36.85;;;;;;;13.44;56.72;103082.75;5073805;28;20048;-61
2022/03/25 09:13:12;;;;;;;61.90;38.58;;;;;;;13.55;54.35;103080.50;5073832;28;20128;-57
2022/03/25 09:15:40;;;;;;;60.33;38.20;;;;;;;13.64;56.93;103081.91;5073574;28;20037;-58
2022/03/25 09:18:10;;;;;;;64.53;39.10;;;;;;;13.82;57.58;103085.56;5072338;28;20052;-62
2022/03/25 09:20:38;;;;;;;62.13;39.25;;;;;;;13.89;57.58;103088.78;5073540;28;20115;-62
2022/03/25 09:23:08;;;;;;;61.63;40.17;;;;;;;14.12;57.54;103082.47;5073717;28;20043;-58
2022/03/25 09:25:37;;;;;;;67.57;42.28;;;;;;;14.20;56.75;103081.19;5074196;28;20051;-58
2022/03/25 09:28:05;;;;;;;62.38;39.50;;;;;;;14.26;56.46;103084.50;5073235;28;20099;-58
2022/03/25 09:30:34;;;;;;;63.20;40.10;;;;;;;14.59;55.56;103087.41;5073317;28;20403;-58
2022/03/25 09:33:06;;;;;;;62.50;38.60;;;;;;;14.69;54.25;103086.06;5073131;28;20048;-57
2022/03/25 09:35:38;;;;;;;59.38;37.58;;;;;;;14.98;54.34;103081.19;5073259;28;20514;-57
2022/03/25 09:38:06;;;;;;;63.03;39.50;;;;;;;15.12;53.67;103084.91;5073579;28;20048;-58
2022/03/25 09:40:35;;;;;;;61.28;38.05;;;;;;;15.34;52.62;103087.38;5072727;28;20037;-58
2022/03/25 09:43:04;;;;;;;59.05;38.03;;;;;;;15.24;52.78;103081.66;5071944;28;20614;-58
2022/03/25 09:45:35;;;;;;;58.50;38.75;;;;;;;15.22;51.66;103078.25;5073286;28;20052;-57
2022/03/25 09:48:04;;;;;;;57.15;38.70;;;;;;;15.56;50.95;103081.84;5072983;28;20083;-58
2022/03/25 09:50:36;;;;;;;60.97;39.28;;;;;;;15.73;50.45;103078.31;5073179;28;20037;-59
2022/03/25 09:53:08;;;;;;;60.97;37.58;;;;;;;15.68;50.61;103078.56;5072967;28;20044;-58
2022/03/25 09:55:40;;;;;;;60.05;37.58;;;;;;;15.94;49.51;103076.38;5072850;28;20056;-57
2022/03/25 09:58:10;;;;;;;56.25;37.40;;;;;;;15.98;50.06;103077.94;5072982;28;20080;-57
2022/03/25 10:00:39;;;;;;;58.95;38.05;;;;;;;15.99;48.74;103079.66;5072898;28;20044;-58
2022/03/25 10:03:07;;;;;;;58.80;37.33;;;;;;;16.10;49.06;103078.22;5072774;28;20052;-58
2022/03/25 10:05:54;;;;;;;60.33;39.38;;;;;;;16.50;48.84;103084.03;5072874;28;20067;-57
2022/03/25 10:08:34;;;;;;;58.42;38.17;;;;;;;16.74;47.74;103079.13;5072770;28;20044;-57
2022/03/25 10:11:23;;;;;;;56.38;37.38;;;;;;;16.93;47.50;103078.16;5071273;28;20407;-58
2022/03/25 10:14:14;;;;;;;57.17;37.55;;;;;;;17.00;46.32;103076.84;5072638;28;20053;-59
2022/03/25 10:16:45;;;;;;;57.53;37.97;;;;;;;17.01;45.71;103074.09;5072670;28;20131;-59
2022/03/25 10:19:33;;;;;;;57.65;38.95;;;;;;;17.20;45.99;103073.88;5072743;28;20410;-58
2022/03/25 10:22:04;;;;;;;59.03;38.55;;;;;;;17.50;44.95;103065.03;5071211;28;20391;-59
2022/03/25 10:24:42;;;;;;;54.33;36.70;;;;;;;17.58;44.12;103064.59;5072427;28;20163;-58
2022/03/25 10:27:21;;;;;;;58.88;38.38;;;;;;;17.42;44.71;103067.31;5072477;28;20051;-58
2022/03/25 10:29:54;;;;;;;55.90;37.22;;;;;;;17.61;44.51;103067.06;5072801;28;20048;-59
2022/03/25 10:32:24;;;;;;;56.08;36.03;;;;;;;17.74;43.08;103061.88;5072499;28;20470;-59
2022/03/25 10:35:06;;;;;;;55.45;36.70;;;;;;;17.86;42.61;103068.22;5072355;28;20041;-58
2022/03/25 10:37:35;;;;;;;53.03;34.60;;;;;;;17.99;42.45;103071.91;5072340;28;20470;-59
2022/03/25 10:40:07;;;;;;;50.85;33.97;;;;;;;18.22;42.18;103070.47;5072319;28;21056;-59
2022/03/25 10:42:36;;;;;;;55.47;36.20;;;;;;;18.17;41.81;103063.72;5071921;28;20044;-58
2022/03/25 10:45:26;;;;;;;52.15;36.42;;;;;;;18.11;42.18;103069.44;5072086;28;20052;-58
2022/03/25 10:48:14;;;;;;;50.97;35.30;;;;;;;18.57;41.76;103062.03;5072130;28;20047;-58
2022/03/25 10:51:03;;;;;;;51.35;35.53;;;;;;;18.72;41.30;103065.53;5070885;28;20068;-58
2022/03/25 10:53:33;;;;;;;52.35;35.88;;;;;;;18.94;41.51;103061.50;5071880;28;20048;-58
2022/03/25 10:56:06;;;;;;;53.45;36.20;;;;;;;18.87;41.68;103063.66;5071921;28;20048;-57
2022/03/25 10:58:35;;;;;;;57.25;37.53;;;;;;;19.13;41.36;103060.25;5068956;28;20123;-57
2022/03/25 11:01:05;;;;;;;50.53;35.83;;;;;;;19.39;40.38;103054.03;5071014;28;20036;-57
2022/03/25 11:03:34;;;;;;;52.95;36.80;;;;;;;19.57;39.73;103065.25;5071855;28;20504;-58
2022/03/25 11:06:03;;;;;;;51.40;35.13;;;;;;;19.65;39.56;103054.06;5067352;28;20049;-58
2022/03/25 11:08:31;;;;;;;52.88;34.70;;;;;;;19.86;39.22;103057.06;5065898;28;20094;-58
2022/03/25 11:11:00;;;;;;;53.47;36.17;;;;;;;19.93;38.92;103057.47;5051138;28;20051;-58
2022/03/25 11:13:30;;;;;;;50.28;35.22;;;;;;;20.13;38.87;103063.25;5051482;28;20041;-57
2022/03/25 11:16:02;;;;;;;49.00;35.70;;;;;;;19.85;38.86;103062.50;5052102;28;20055;-57
2022/03/25 11:18:30;;;;;;;54.05;34.08;;;;;;;19.94;38.79;103059.19;5051647;28;20079;-64
2022/03/25 11:20:59;;;;;;;55.65;36.60;;;;;;;19.88;38.77;103054.31;5051608;28;20119;-63
2022/03/25 11:23:32;;;;;;;50.03;35.80;;;;;;;20.04;39.41;103057.59;5056864;28;20555;-66
2022/03/25 11:26:07;;;;;;;51.70;35.88;;;;;;;19.94;39.40;103056.53;5060653;28;20523;-64
2022/03/25 11:28:38;;;;;;;53.67;37.13;;;;;;;19.76;39.28;103058.66;5051761;28;20064;-65